createdAt,value
2022-10-01T00:00:55.288Z,9.00
2022-10-01T00:03:25.536Z,8.90
2022-10-01T00:06:18.899Z,8.90
2022-10-01T00:08:48.723Z,8.90
2022-10-01T00:11:16.872Z,8.90
2022-10-01T00:13:44.120Z,8.90
2022-10-01T00:16:14.702Z,8.90
2022-10-01T00:18:43.535Z,8.90
2022-10-01T00:21:12.796Z,8.90
2022-10-01T00:23:40.241Z,8.90
2022-10-01T00:26:18.565Z,8.90
2022-10-01T00:28:47.331Z,8.90
2022-10-01T00:31:15.726Z,8.90
2022-10-01T00:33:42.766Z,8.90
2022-10-01T00:36:10.781Z,9.00
2022-10-01T00:38:40.133Z,9.00
2022-10-01T00:41:07.323Z,9.00
2022-10-01T00:43:42.446Z,9.00
2022-10-01T00:46:21.446Z,9.00
2022-10-01T00:49:00.933Z,8.90
2022-10-01T00:51:32.599Z,8.90
2022-10-01T00:54:08.354Z,8.90
2022-10-01T00:56:35.342Z,8.90
2022-10-01T00:59:02.395Z,8.80
2022-10-01T01:01:29.010Z,8.80
2022-10-01T01:03:56.576Z,8.80
2022-10-01T01:06:23.255Z,8.80
2022-10-01T01:08:54.917Z,8.80
2022-10-01T01:11:33.990Z,8.80
2022-10-01T01:14:22.406Z,8.70
2022-10-01T01:16:57.416Z,8.70
2022-10-01T01:20:01.824Z,8.70
2022-10-01T01:22:33.340Z,8.70
2022-10-01T01:25:08.825Z,8.70
2022-10-01T01:27:41.666Z,8.60
2022-10-01T01:30:15.121Z,8.60
2022-10-01T01:33:04.615Z,8.60
2022-10-01T01:35:37.305Z,8.60
2022-10-01T01:38:11.312Z,8.60
2022-10-01T01:40:40.409Z,8.60
2022-10-01T01:43:11.879Z,8.60
2022-10-01T01:45:40.306Z,8.60
2022-10-01T01:48:09.796Z,8.60
2022-10-01T01:50:41.899Z,8.60
2022-10-01T01:53:08.851Z,8.60
2022-10-01T01:55:37.024Z,8.60
2022-10-01T01:58:03.910Z,8.60
2022-10-01T02:00:30.391Z,8.60
2022-10-01T02:02:57.745Z,8.60
2022-10-01T02:05:28.964Z,8.60
2022-10-01T02:08:20.965Z,8.60
2022-10-01T02:11:01.920Z,8.60
2022-10-01T02:13:40.607Z,8.60
2022-10-01T02:16:30.416Z,8.60
2022-10-01T02:19:18.110Z,8.60
2022-10-01T02:21:58.582Z,8.60
2022-10-01T02:24:41.024Z,8.60
2022-10-01T02:27:44.209Z,8.60
2022-10-01T02:30:11.543Z,8.60
2022-10-01T02:32:40.449Z,8.60
2022-10-01T02:35:12.058Z,8.60
2022-10-01T02:37:41.219Z,8.60
2022-10-01T02:40:15.828Z,8.60
2022-10-01T02:42:48.362Z,8.60
2022-10-01T02:45:22.629Z,8.60
2022-10-01T02:47:58.804Z,8.60
2022-10-01T02:50:30.966Z,8.60
2022-10-01T02:53:06.648Z,8.60
2022-10-01T02:55:37.414Z,8.60
2022-10-01T02:58:04.590Z,8.60
2022-10-01T03:00:31.236Z,8.70
2022-10-01T03:02:57.810Z,8.60
2022-10-01T03:05:24.379Z,8.70
2022-10-01T03:07:50.914Z,8.70
2022-10-01T03:10:17.869Z,8.70
2022-10-01T03:12:46.357Z,8.70
2022-10-01T03:15:14.666Z,8.80
2022-10-01T03:17:41.268Z,8.70
2022-10-01T03:20:08.679Z,8.80
2022-10-01T03:22:35.479Z,8.80
2022-10-01T03:25:01.972Z,8.80
2022-10-01T03:27:28.504Z,8.90
2022-10-01T03:29:55.000Z,8.90
2022-10-01T03:32:21.528Z,8.90
2022-10-01T03:34:48.236Z,8.90
2022-10-01T03:37:14.738Z,9.00
2022-10-01T03:39:41.261Z,8.90
2022-10-01T03:42:07.757Z,9.00
2022-10-01T03:44:34.475Z,9.00
2022-10-01T03:47:00.983Z,9.00
2022-10-01T03:49:28.100Z,8.90
2022-10-01T03:51:54.620Z,8.90
2022-10-01T03:54:21.465Z,8.90
2022-10-01T03:56:48.786Z,8.90
2022-10-01T03:59:15.315Z,8.90
2022-10-01T04:01:41.897Z,8.90
2022-10-01T04:04:08.507Z,8.90
2022-10-01T04:06:35.062Z,8.90
2022-10-01T04:09:01.616Z,8.90
2022-10-01T04:11:28.217Z,8.90
2022-10-01T04:13:55.164Z,8.90
2022-10-01T04:16:21.774Z,8.90
2022-10-01T04:18:48.286Z,8.90
2022-10-01T04:21:15.421Z,8.90
2022-10-01T04:23:42.172Z,8.90
2022-10-01T04:26:09.111Z,8.90
2022-10-01T04:28:35.847Z,8.90
2022-10-01T04:31:20.932Z,9.00
2022-10-01T04:33:48.066Z,9.00
2022-10-01T04:36:14.638Z,9.00
2022-10-01T04:38:41.540Z,9.00
2022-10-01T04:41:09.122Z,9.10
2022-10-01T04:43:36.533Z,9.20
2022-10-01T04:46:03.070Z,9.20
2022-10-01T04:48:29.587Z,9.20
2022-10-01T04:50:56.057Z,9.20
2022-10-01T04:53:22.573Z,9.20
2022-10-01T04:55:49.112Z,9.20
2022-10-01T04:58:15.672Z,9.20
2022-10-01T05:00:42.270Z,9.20
2022-10-01T05:03:09.019Z,9.30
2022-10-01T05:05:35.571Z,9.20
2022-10-01T05:08:02.902Z,9.20
2022-10-01T05:10:29.393Z,9.20
2022-10-01T05:12:57.852Z,9.20
2022-10-01T05:15:24.439Z,9.20
2022-10-01T05:17:50.937Z,9.20
2022-10-01T05:20:20.042Z,9.20
2022-10-01T05:22:47.212Z,9.20
2022-10-01T05:25:13.887Z,9.20
2022-10-01T05:27:40.876Z,9.20
2022-10-01T05:30:10.451Z,9.20
2022-10-01T05:32:37.626Z,9.20
2022-10-01T05:35:05.347Z,9.20
2022-10-01T05:37:31.910Z,9.20
2022-10-01T05:39:58.459Z,9.20
2022-10-01T05:42:25.092Z,9.20
2022-10-01T05:44:51.615Z,9.20
2022-10-01T05:47:18.527Z,9.20
2022-10-01T05:49:45.047Z,9.20
2022-10-01T05:52:12.448Z,9.20
2022-10-01T05:54:39.297Z,9.20
2022-10-01T05:57:07.780Z,9.20
2022-10-01T05:59:35.183Z,9.20
2022-10-01T06:02:01.998Z,9.30
2022-10-01T06:04:28.574Z,9.30
2022-10-01T06:06:55.949Z,9.30
2022-10-01T06:09:22.589Z,9.30
2022-10-01T06:11:49.493Z,9.30
2022-10-01T06:14:16.904Z,9.30
2022-10-01T06:16:43.563Z,9.30
2022-10-01T06:19:10.316Z,9.30
2022-10-01T06:21:37.354Z,9.30
2022-10-01T06:24:04.256Z,9.30
2022-10-01T06:26:31.098Z,9.30
2022-10-01T06:28:57.636Z,9.40
2022-10-01T06:31:24.241Z,9.40
2022-10-01T06:33:50.774Z,9.40
2022-10-01T06:36:17.307Z,9.40
2022-10-01T06:38:43.883Z,9.40
2022-10-01T06:41:13.980Z,9.40
2022-10-01T06:43:40.552Z,9.50
2022-10-01T06:46:07.261Z,9.50
2022-10-01T06:48:36.232Z,9.50
2022-10-01T06:51:03.507Z,9.50
2022-10-01T06:53:30.333Z,9.50
2022-10-01T06:55:57.117Z,9.60
2022-10-01T06:58:27.616Z,9.60
2022-10-01T07:00:59.835Z,9.60
2022-10-01T07:03:27.614Z,9.60
2022-10-01T07:05:54.165Z,9.60
2022-10-01T07:08:20.960Z,9.60
2022-10-01T07:10:47.485Z,9.60
2022-10-01T07:13:20.130Z,9.60
2022-10-01T07:15:46.903Z,9.60
2022-10-01T07:18:13.686Z,9.60
2022-10-01T07:20:40.904Z,9.60
2022-10-01T07:23:15.351Z,9.70
2022-10-01T07:25:42.905Z,9.70
2022-10-01T07:28:18.546Z,9.60
2022-10-01T07:30:56.252Z,9.70
2022-10-01T07:33:22.736Z,9.70
2022-10-01T07:35:49.245Z,9.70
2022-10-01T07:38:16.042Z,9.70
2022-10-01T07:40:43.075Z,9.70
2022-10-01T07:43:09.709Z,9.70
2022-10-01T07:45:36.283Z,9.70
2022-10-01T07:48:03.361Z,9.70
2022-10-01T07:50:33.097Z,9.70
2022-10-01T07:52:59.843Z,9.70
2022-10-01T07:55:28.108Z,9.70
2022-10-01T07:57:56.544Z,9.70
2022-10-01T08:00:25.325Z,9.70
2022-10-01T08:02:54.209Z,9.70
2022-10-01T08:05:22.816Z,9.80
2022-10-01T08:07:50.236Z,9.80
2022-10-01T08:10:18.743Z,9.80
2022-10-01T08:12:46.006Z,9.80
2022-10-01T08:15:14.867Z,9.80
2022-10-01T08:17:41.750Z,9.80
2022-10-01T08:20:10.868Z,9.80
2022-10-01T08:22:41.856Z,9.80
2022-10-01T08:25:09.559Z,9.80
2022-10-01T08:27:36.562Z,9.80
2022-10-01T08:30:03.503Z,9.90
2022-10-01T08:32:31.582Z,9.90
2022-10-01T08:35:00.349Z,9.90
2022-10-01T08:37:30.188Z,9.90
2022-10-01T08:39:57.185Z,9.90
2022-10-01T08:42:47.624Z,9.90
2022-10-01T08:45:19.685Z,9.90
2022-10-01T08:48:24.128Z,9.90
2022-10-01T08:50:57.397Z,9.90
2022-10-01T08:53:42.476Z,9.90
2022-10-01T08:56:29.128Z,9.90
2022-10-01T08:59:03.429Z,9.90
2022-10-01T09:01:31.062Z,9.90
2022-10-01T09:03:59.321Z,10.00
2022-10-01T09:06:27.488Z,10.00
2022-10-01T09:09:12.903Z,10.00
2022-10-01T09:12:03.250Z,10.10
2022-10-01T09:15:00.989Z,10.20
2022-10-01T09:17:54.703Z,10.30
2022-10-01T09:20:25.584Z,10.30
2022-10-01T09:23:04.277Z,10.30
2022-10-01T09:25:31.848Z,10.30
2022-10-01T09:28:15.985Z,10.30
2022-10-01T09:30:55.582Z,10.30
2022-10-01T09:33:24.448Z,10.40
2022-10-01T09:36:00.026Z,10.40
2022-10-01T09:38:34.478Z,10.40
2022-10-01T09:41:00.967Z,10.40
2022-10-01T09:43:30.755Z,10.50
2022-10-01T09:45:57.660Z,10.50
2022-10-01T09:48:31.397Z,10.50
2022-10-01T09:51:12.069Z,10.40
2022-10-01T09:54:01.034Z,10.50
2022-10-01T09:56:33.773Z,10.50
2022-10-01T09:59:05.997Z,10.50
2022-10-01T10:01:54.674Z,10.50
2022-10-01T10:04:25.269Z,10.50
2022-10-01T10:06:59.496Z,10.50
2022-10-01T10:09:34.660Z,10.60
2022-10-01T10:12:02.321Z,10.60
2022-10-01T10:14:33.087Z,10.60
2022-10-01T10:17:11.584Z,10.70
2022-10-01T10:19:38.995Z,10.70
2022-10-01T10:22:23.044Z,10.70
2022-10-01T10:24:49.590Z,10.60
2022-10-01T10:27:30.291Z,10.70
2022-10-01T10:30:17.409Z,10.70
2022-10-01T10:32:46.943Z,10.70
2022-10-01T10:35:22.984Z,10.70
2022-10-01T10:37:55.537Z,10.70
2022-10-01T10:40:34.354Z,10.70
2022-10-01T10:43:01.273Z,10.80
2022-10-01T10:45:35.457Z,10.80
2022-10-01T10:48:04.631Z,10.80
2022-10-01T10:50:38.940Z,10.80
2022-10-01T10:53:19.647Z,10.80
2022-10-01T10:56:00.096Z,10.80
2022-10-01T10:58:29.696Z,10.80
2022-10-01T11:01:09.620Z,10.90
2022-10-01T11:03:41.440Z,11.10
2022-10-01T11:06:14.681Z,11.20
2022-10-01T11:08:42.758Z,11.40
2022-10-01T11:11:26.223Z,11.40
2022-10-01T11:13:58.281Z,11.50
2022-10-01T11:16:42.521Z,11.60
2022-10-01T11:19:22.896Z,11.70
2022-10-01T11:22:25.940Z,11.60
2022-10-01T11:25:16.532Z,11.60
2022-10-01T11:28:03.274Z,11.60
2022-10-01T11:30:58.700Z,11.60
2022-10-01T11:33:45.080Z,11.50
2022-10-01T11:36:26.393Z,11.50
2022-10-01T11:39:02.915Z,11.50
2022-10-01T11:41:30.633Z,11.50
2022-10-01T11:44:01.935Z,11.50
2022-10-01T11:46:41.231Z,11.50
2022-10-01T11:49:21.921Z,11.50
2022-10-01T11:52:32.476Z,11.50
2022-10-01T11:55:35.056Z,11.60
2022-10-01T11:58:48.592Z,11.70
2022-10-01T12:01:24.814Z,11.80
2022-10-01T12:03:54.074Z,12.10
2022-10-01T12:06:26.786Z,12.50
2022-10-01T12:09:20.964Z,12.60
2022-10-01T12:11:59.325Z,12.70
2022-10-01T12:14:37.778Z,12.70
2022-10-01T12:17:21.348Z,12.70
2022-10-01T12:19:51.788Z,12.60
2022-10-01T12:22:25.703Z,12.70
2022-10-01T12:24:53.728Z,12.80
2022-10-01T12:27:38.291Z,13.10
2022-10-01T12:30:20.925Z,13.60
2022-10-01T12:33:09.857Z,14.10
2022-10-01T12:35:51.545Z,14.50
2022-10-01T12:38:37.915Z,14.80
2022-10-01T12:41:26.840Z,14.80
2022-10-01T12:44:18.489Z,14.50
2022-10-01T12:47:08.255Z,14.50
2022-10-01T12:49:52.806Z,14.20
2022-10-01T12:52:39.965Z,14.20
2022-10-01T12:55:34.140Z,14.30
2022-10-01T12:58:19.584Z,14.30
2022-10-01T13:01:12.304Z,14.30
2022-10-01T13:04:03.895Z,14.40
2022-10-01T13:06:56.569Z,14.40
2022-10-01T13:09:52.177Z,14.60
2022-10-01T13:13:01.095Z,14.90
2022-10-01T13:15:34.899Z,14.80
2022-10-01T13:18:06.405Z,14.80
2022-10-01T13:20:54.061Z,15.00
2022-10-01T13:23:38.644Z,15.10
2022-10-01T13:26:19.981Z,15.10
2022-10-01T13:29:16.023Z,15.10
2022-10-01T13:31:56.794Z,15.10
2022-10-01T13:34:51.832Z,15.10
2022-10-01T13:37:31.804Z,15.30
2022-10-01T13:39:59.885Z,15.50
2022-10-01T13:42:51.415Z,15.60
2022-10-01T13:45:29.027Z,15.70
2022-10-01T13:48:20.115Z,15.80
2022-10-01T13:51:04.904Z,15.80
2022-10-01T13:53:36.144Z,15.80
2022-10-01T13:56:04.536Z,15.80
2022-10-01T13:58:33.308Z,16.00
2022-10-01T14:01:03.645Z,15.90
2022-10-01T14:03:57.185Z,15.80
2022-10-01T14:06:35.505Z,15.80
2022-10-01T14:09:29.516Z,15.70
2022-10-01T14:12:24.552Z,15.70
2022-10-01T14:15:18.607Z,15.80
2022-10-01T14:17:48.865Z,15.80
2022-10-01T14:20:21.484Z,15.70
2022-10-01T14:23:00.332Z,15.70
2022-10-01T14:25:53.822Z,15.80
2022-10-01T14:28:51.442Z,15.80
2022-10-01T14:31:38.253Z,16.10
2022-10-01T14:34:12.052Z,16.30
2022-10-01T14:36:45.297Z,16.50
2022-10-01T14:39:27.125Z,16.70
2022-10-01T14:41:55.317Z,16.70
2022-10-01T14:44:30.355Z,16.70
2022-10-01T14:46:58.788Z,16.80
2022-10-01T14:49:28.392Z,16.70
2022-10-01T14:52:04.364Z,16.70
2022-10-01T14:54:47.363Z,16.60
2022-10-01T14:57:33.484Z,16.60
2022-10-01T15:00:07.426Z,16.50
2022-10-01T15:02:33.927Z,16.50
2022-10-01T15:05:00.838Z,16.60
2022-10-01T15:07:34.645Z,16.60
2022-10-01T15:10:08.484Z,16.60
2022-10-01T15:12:41.034Z,16.80
2022-10-01T15:15:27.923Z,17.00
2022-10-01T15:17:54.482Z,17.00
2022-10-01T15:20:21.132Z,17.00
2022-10-01T15:22:50.310Z,16.90
2022-10-01T15:25:22.062Z,16.80
2022-10-01T15:27:49.530Z,16.80
2022-10-01T15:30:18.176Z,16.80
2022-10-01T15:32:48.466Z,16.70
2022-10-01T15:35:19.329Z,16.70
2022-10-01T15:37:50.253Z,16.60
2022-10-01T15:40:30.207Z,16.60
2022-10-01T15:43:21.425Z,16.60
2022-10-01T15:46:28.835Z,16.40
2022-10-01T15:49:20.007Z,16.40
2022-10-01T15:52:11.993Z,16.30
2022-10-01T15:54:43.694Z,16.20
2022-10-01T15:57:20.057Z,16.10
2022-10-01T15:59:49.121Z,16.10
2022-10-01T16:02:24.301Z,16.10
2022-10-01T16:04:55.968Z,16.10
2022-10-01T16:07:31.424Z,16.00
2022-10-01T16:10:00.228Z,16.00
2022-10-01T16:12:28.359Z,16.00
2022-10-01T16:15:06.129Z,16.00
2022-10-01T16:17:38.683Z,15.90
2022-10-01T16:20:14.284Z,15.90
2022-10-01T16:22:41.817Z,15.80
2022-10-01T16:25:22.880Z,15.80
2022-10-01T16:28:05.198Z,15.70
2022-10-01T16:30:33.925Z,15.60
2022-10-01T16:33:04.381Z,15.60
2022-10-01T16:35:36.013Z,15.50
2022-10-01T16:38:06.547Z,15.40
2022-10-01T16:40:38.555Z,15.40
2022-10-01T16:43:07.409Z,15.40
2022-10-01T16:45:38.461Z,15.40
2022-10-01T16:48:19.936Z,15.30
2022-10-01T16:50:47.091Z,15.20
2022-10-01T16:53:16.551Z,15.10
2022-10-01T16:55:44.033Z,15.10
2022-10-01T16:58:11.196Z,15.10
2022-10-01T17:00:38.569Z,15.00
2022-10-01T17:03:07.330Z,15.10
2022-10-01T17:05:35.968Z,15.00
2022-10-01T17:08:10.838Z,15.00
2022-10-01T17:10:56.842Z,14.90
2022-10-01T17:13:24.767Z,14.90
2022-10-01T17:15:52.045Z,14.90
2022-10-01T17:18:18.875Z,14.90
2022-10-01T17:20:48.313Z,14.80
2022-10-01T17:23:17.320Z,14.80
2022-10-01T17:25:43.878Z,14.70
2022-10-01T17:28:16.355Z,14.70
2022-10-01T17:30:44.336Z,14.70
2022-10-01T17:33:13.641Z,14.60
2022-10-01T17:35:41.408Z,14.60
2022-10-01T17:38:07.974Z,14.60
2022-10-01T17:40:34.806Z,14.60
2022-10-01T17:43:01.347Z,14.60
2022-10-01T17:45:28.019Z,14.60
2022-10-01T17:47:56.328Z,14.60
2022-10-01T17:50:23.611Z,14.50
2022-10-01T17:52:50.437Z,14.60
2022-10-01T17:55:19.762Z,14.60
2022-10-01T17:57:46.238Z,14.50
2022-10-01T18:00:12.929Z,14.60
2022-10-01T18:02:42.693Z,14.50
2022-10-01T18:05:12.771Z,14.60
2022-10-01T18:07:40.345Z,14.60
2022-10-01T18:10:09.575Z,14.50
2022-10-01T18:12:36.131Z,14.50
2022-10-01T18:15:02.709Z,14.50
2022-10-01T18:17:32.088Z,14.50
2022-10-01T18:19:58.894Z,14.50
2022-10-01T18:22:26.445Z,14.40
2022-10-01T18:24:53.145Z,14.40
2022-10-01T18:27:19.740Z,14.40
2022-10-01T18:29:46.357Z,14.30
2022-10-01T18:32:31.326Z,14.20
2022-10-01T18:34:59.050Z,14.20
2022-10-01T18:37:45.544Z,14.10
2022-10-01T18:40:20.704Z,14.10
2022-10-01T18:43:07.310Z,14.10
2022-10-01T18:45:36.954Z,14.00
2022-10-01T18:48:13.443Z,13.90
2022-10-01T18:50:43.205Z,13.90
2022-10-01T18:53:36.246Z,13.80
2022-10-01T18:56:17.929Z,13.80
2022-10-01T18:58:51.568Z,13.70
2022-10-01T19:01:27.298Z,13.70
2022-10-01T19:03:54.012Z,13.70
2022-10-01T19:06:29.257Z,13.70
2022-10-01T19:09:08.021Z,13.70
2022-10-01T19:12:03.064Z,13.70
2022-10-01T19:14:57.920Z,13.60
2022-10-01T19:18:05.044Z,13.70
2022-10-01T19:20:46.165Z,13.70
2022-10-01T19:23:37.673Z,13.60
2022-10-01T19:26:21.023Z,13.60
2022-10-01T19:29:11.621Z,13.60
2022-10-01T19:31:52.963Z,13.60
2022-10-01T19:34:30.900Z,13.60
2022-10-01T19:37:05.900Z,13.50
2022-10-01T19:39:37.800Z,13.50
2022-10-01T19:42:24.435Z,13.50
2022-10-01T19:44:59.928Z,13.50
2022-10-01T19:47:45.804Z,13.50
2022-10-01T19:50:24.076Z,13.60
2022-10-01T19:53:00.991Z,13.60
2022-10-01T19:55:38.752Z,13.70
2022-10-01T19:58:17.852Z,13.70
2022-10-01T20:00:48.256Z,13.70
2022-10-01T20:03:29.004Z,13.70
2022-10-01T20:06:13.581Z,13.70
2022-10-01T20:11:47.544Z,13.60
2022-10-01T20:14:59.266Z,13.50
2022-10-01T20:17:53.026Z,13.50
2022-10-01T20:21:10.204Z,13.40
2022-10-01T20:24:08.992Z,13.30
2022-10-01T20:27:02.549Z,13.10
2022-10-01T20:29:51.268Z,13.10
2022-10-01T20:32:42.887Z,13.10
2022-10-01T20:35:27.534Z,13.00
2022-10-01T20:38:20.504Z,12.90
2022-10-01T20:40:55.895Z,12.90
2022-10-01T20:43:54.574Z,12.80
2022-10-01T20:46:49.513Z,12.80
2022-10-01T20:49:46.378Z,12.70
2022-10-01T20:52:37.677Z,12.70
2022-10-01T20:55:09.689Z,12.60
2022-10-01T20:57:53.367Z,12.60
2022-10-01T21:00:26.297Z,12.60
2022-10-01T21:03:06.029Z,12.60
2022-10-01T21:05:42.830Z,12.50
2022-10-01T21:08:43.779Z,12.50
2022-10-01T21:11:33.336Z,12.40
2022-10-01T21:14:26.612Z,12.40
2022-10-01T21:17:07.518Z,12.50
2022-10-01T21:20:11.409Z,12.50
2022-10-01T21:22:48.081Z,12.50
2022-10-01T21:25:36.367Z,12.50
2022-10-01T21:28:27.633Z,12.50
2022-10-01T21:31:28.461Z,12.60
2022-10-01T21:34:20.701Z,12.60
2022-10-01T21:37:10.001Z,12.60
2022-10-01T21:40:03.945Z,12.60
2022-10-01T21:42:54.326Z,12.70
2022-10-01T21:45:54.045Z,12.80
2022-10-01T21:48:46.013Z,12.80
2022-10-01T21:51:31.962Z,12.80
2022-10-01T21:54:35.546Z,12.70
2022-10-01T21:57:18.495Z,12.80
2022-10-01T22:00:09.646Z,12.70
2022-10-01T22:02:46.260Z,12.80
2022-10-01T22:05:37.186Z,12.80
2022-10-01T22:08:10.420Z,12.70
2022-10-01T22:10:45.586Z,12.70
2022-10-01T22:13:21.832Z,12.60
2022-10-01T22:15:56.984Z,12.60
2022-10-01T22:18:40.833Z,12.60
2022-10-01T22:21:18.586Z,12.60
2022-10-01T22:23:50.550Z,12.50
2022-10-01T22:26:21.108Z,12.50
2022-10-01T22:28:54.863Z,12.40
2022-10-01T22:31:33.539Z,12.40
2022-10-01T22:34:02.674Z,12.40
2022-10-01T22:36:39.125Z,12.40
2022-10-01T22:39:17.664Z,12.30
2022-10-01T22:41:52.674Z,12.30
2022-10-01T22:44:21.316Z,12.40
2022-10-01T22:47:06.028Z,12.40
2022-10-01T22:49:57.018Z,12.30
2022-10-01T22:52:39.198Z,12.30
2022-10-01T22:55:21.397Z,12.40
2022-10-01T22:58:29.192Z,12.30
2022-10-01T23:01:11.067Z,12.40
2022-10-01T23:04:13.130Z,12.40
2022-10-01T23:07:13.940Z,12.50
2022-10-01T23:10:12.385Z,12.60
2022-10-01T23:13:16.922Z,12.60
2022-10-01T23:16:16.444Z,12.60
2022-10-01T23:19:18.342Z,12.70
2022-10-01T23:22:00.244Z,12.70
2022-10-01T23:24:52.361Z,12.70
2022-10-01T23:27:31.661Z,12.60
2022-10-01T23:29:58.110Z,12.60
2022-10-01T23:32:32.643Z,12.50
2022-10-01T23:35:13.192Z,12.40
2022-10-01T23:38:01.420Z,12.30
2022-10-01T23:40:33.634Z,12.20
2022-10-01T23:43:25.768Z,12.20
2022-10-01T23:46:14.374Z,12.00
2022-10-01T23:48:49.564Z,12.10
2022-10-01T23:51:34.227Z,12.00
2022-10-01T23:54:12.728Z,12.00
2022-10-01T23:56:59.388Z,11.90
2022-10-01T23:59:50.404Z,11.90
